TimeEST,TemperatureF,Dew PointF,Humidity,Sea Level PressureIn,VisibilityMPH,Wind Direction,Wind SpeedMPH,Gust SpeedMPH,PrecipitationIn,Events,Conditions,WindDirDegrees,DateUTC
12:51 AM,12.0,-0.9,56,30.48,10.0,Calm,Calm,-,N/A,,Overcast,0,2013-02-08 05:51:00
1:51 AM,12.9,-2.0,51,30.48,10.0,Calm,Calm,-,N/A,,Overcast,0,2013-02-08 06:51:00
2:51 AM,12.9,-0.0,56,30.44,10.0,Calm,Calm,-,N/A,,Overcast,0,2013-02-08 07:51:00
3:48 AM,15.1,5.0,64,30.42,2.5,SSE,8.1,-,0.00,Snow,Light Snow,160,2013-02-08 08:48:00
4:08 AM,14.0,6.8,73,30.33,1.5,South,6.9,-,0.00,Snow,Light Snow,180,2013-02-08 09:08:00
4:44 AM,14.0,8.6,79,30.32,1.2,South,6.9,-,0.00,Snow,Light Snow,170,2013-02-08 09:44:00
4:51 AM,14.0,9.0,80,30.40,1.2,South,5.8,-,0.00,Snow,Light Snow,170,2013-02-08 09:51:00
4:58 AM,12.2,10.4,92,30.32,1.0,South,5.8,-,0.01,Snow,Light Snow,170,2013-02-08 09:58:00
5:36 AM,14.0,10.4,86,30.31,1.2,South,5.8,-,0.02,Snow,Light Snow,170,2013-02-08 10:36:00
5:43 AM,14.0,10.4,86,30.31,1.0,South,4.6,-,0.02,Snow,Light Snow,170,2013-02-08 10:43:00
5:51 AM,14.0,10.0,84,30.39,0.8,South,4.6,-,0.02,Snow,Light Snow,180,2013-02-08 10:51:00
5:58 AM,14.0,10.4,86,30.31,0.8,South,3.5,-,0.01,Snow,Light Snow,180,2013-02-08 10:58:00
6:13 AM,14.0,10.4,86,30.30,1.0,South,3.5,-,0.02,Snow,Light Snow,170,2013-02-08 11:13:00
6:22 AM,14.0,10.4,86,30.30,1.2,Calm,Calm,-,N/A,Snow,Light Snow,0,2013-02-08 11:22:00
6:37 AM,14.0,10.4,86,30.30,1.0,SSE,3.5,-,0.03,Snow,Light Snow,160,2013-02-08 11:37:00
6:51 AM,14.0,10.9,88,30.37,1.0,Calm,Calm,-,0.03,Snow,Light Snow,0,2013-02-08 11:51:00
7:03 AM,14.0,10.4,86,30.29,0.8,Calm,Calm,-,0.01,Snow,Light Snow,0,2013-02-08 12:03:00
7:51 AM,12.9,12.0,96,30.38,0.5,Calm,Calm,-,0.04,Fog-Snow,Snow,0,2013-02-08 12:51:00
8:51 AM,15.1,12.9,91,30.36,0.5,Calm,Calm,-,0.03,Fog-Snow,Snow,0,2013-02-08 13:51:00
9:51 AM,17.1,12.9,84,30.33,0.5,SSE,5.8,-,0.03,Fog-Snow,Snow,160,2013-02-08 14:51:00
10:51 AM,18.0,15.1,88,30.32,0.5,Calm,Calm,-,0.02,Fog-Snow,Snow,0,2013-02-08 15:51:00
11:18 AM,17.6,14.0,86,30.23,0.8,SSW,5.8,-,0.01,Snow,Light Snow,210,2013-02-08 16:18:00
11:51 AM,19.0,15.1,85,30.29,0.5,South,4.6,-,0.03,Fog-Snow,Light Snow,190,2013-02-08 16:51:00
11:58 AM,19.4,15.8,86,30.20,0.8,South,3.5,-,0.00,Snow,Light Snow,180,2013-02-08 16:58:00
12:36 PM,19.4,15.8,86,30.18,1.0,South,3.5,-,0.01,Snow,Light Snow,180,2013-02-08 17:36:00
12:44 PM,19.4,15.8,86,30.17,0.8,South,4.6,-,0.01,Snow,Light Snow,180,2013-02-08 17:44:00
12:51 PM,19.9,16.0,85,30.24,0.5,South,3.5,-,0.01,Fog-Snow,Snow,180,2013-02-08 17:51:00
1:13 PM,19.4,15.8,86,30.15,1.0,SSE,4.6,-,0.01,Snow,Light Snow,160,2013-02-08 18:13:00
1:20 PM,19.4,17.6,93,30.15,0.8,SSE,4.6,-,0.01,Snow,Light Snow,160,2013-02-08 18:20:00
1:36 PM,19.4,17.6,93,30.14,0.5,Calm,Calm,-,0.02,Fog-Snow,Snow,0,2013-02-08 18:36:00
1:51 PM,19.9,17.1,89,30.20,0.8,Calm,Calm,-,0.02,Snow,Light Snow,0,2013-02-08 18:51:00
2:00 PM,19.4,17.6,93,30.12,1.0,NNE,3.5,-,0.00,Snow,Light Snow,20,2013-02-08 19:00:00
2:07 PM,19.4,17.6,93,30.11,0.5,Calm,Calm,-,0.00,Fog-Snow,Light Snow,0,2013-02-08 19:07:00
2:29 PM,19.4,17.6,93,30.09,1.0,Calm,Calm,-,0.01,Snow,Light Snow,0,2013-02-08 19:29:00
2:51 PM,19.9,18.0,92,30.16,0.8,Calm,Calm,-,0.02,Snow,Light Snow,0,2013-02-08 19:51:00
3:27 PM,19.4,17.6,93,30.07,1.0,Calm,Calm,-,0.00,Snow,Light Snow,0,2013-02-08 20:27:00
3:42 PM,19.4,17.6,93,30.06,1.2,North,3.5,-,0.01,Snow,Light Snow,360,2013-02-08 20:42:00
3:51 PM,19.9,18.0,92,30.13,1.5,Calm,Calm,-,0.01,Snow,Light Snow,0,2013-02-08 20:51:00
4:14 PM,19.4,17.6,93,30.05,1.0,Calm,Calm,-,0.00,Snow,Light Snow,0,2013-02-08 21:14:00
4:25 PM,19.4,17.6,93,30.05,0.5,Calm,Calm,-,0.00,Fog-Snow,Light Snow,0,2013-02-08 21:25:00
4:51 PM,19.9,18.0,92,30.10,0.8,Calm,Calm,-,0.02,Snow,Light Snow,0,2013-02-08 21:51:00
5:12 PM,19.4,17.6,93,30.02,1.2,Calm,Calm,-,0.00,Snow,Light Snow,0,2013-02-08 22:12:00
5:25 PM,19.4,17.6,93,30.02,1.0,Calm,Calm,-,0.01,Snow,Light Snow,0,2013-02-08 22:25:00
5:51 PM,19.9,18.0,92,30.09,0.8,Calm,Calm,-,0.03,Snow,Light Snow,0,2013-02-08 22:51:00
6:51 PM,19.9,19.0,96,30.09,1.0,East,3.5,-,0.04,Snow,Light Snow,100,2013-02-08 23:51:00
7:09 PM,19.4,19.4,100,30.00,0.8,Calm,Calm,-,0.01,Snow,Light Snow,0,2013-02-09 00:09:00
7:42 PM,19.4,17.6,93,30.00,1.0,NNE,4.6,-,0.03,Snow,Light Snow,30,2013-02-09 00:42:00
7:51 PM,19.0,18.0,96,30.06,1.0,NE,8.1,-,0.03,Snow,Light Snow,40,2013-02-09 00:51:00
8:10 PM,19.4,17.6,93,29.98,0.8,NE,9.2,-,0.01,Snow,Light Snow,40,2013-02-09 01:10:00
8:21 PM,17.6,17.6,100,29.98,1.0,NE,10.4,-,0.01,Snow,Light Snow,40,2013-02-09 01:21:00
8:23 PM,17.6,15.8,93,29.98,1.2,NE,9.2,-,0.01,Snow,Light Snow,40,2013-02-09 01:23:00
8:47 PM,17.6,15.8,93,29.96,1.5,NE,9.2,-,0.01,Snow,Light Snow,40,2013-02-09 01:47:00
8:51 PM,17.1,15.1,92,30.03,1.5,NE,6.9,-,0.01,Snow,Light Snow,40,2013-02-09 01:51:00
9:04 PM,17.6,15.8,93,29.96,1.2,NE,9.2,-,0.00,Snow,Light Snow,40,2013-02-09 02:04:00
9:28 PM,17.6,15.8,93,29.95,1.0,NNE,8.1,-,N/A,Snow,Light Snow,30,2013-02-09 02:28:00
9:40 PM,17.6,15.8,93,29.95,0.8,NNE,8.1,-,0.01,Snow,Light Snow,30,2013-02-09 02:40:00
9:51 PM,17.1,15.1,92,30.01,1.0,NNE,6.9,-,0.01,Snow,Light Snow,20,2013-02-09 02:51:00
10:04 PM,15.8,14.0,93,29.94,1.2,NNE,6.9,-,0.01,Snow,Light Snow,20,2013-02-09 03:04:00
10:13 PM,15.8,14.0,93,29.94,1.2,NNE,8.1,-,0.01,Snow,Light Snow,20,2013-02-09 03:13:00
10:20 PM,15.8,14.0,93,29.94,1.0,NNE,8.1,-,0.01,Snow,Light Snow,20,2013-02-09 03:20:00
10:31 PM,15.8,14.0,93,29.93,1.2,North,8.1,-,0.01,Snow,Light Snow,10,2013-02-09 03:31:00
10:43 PM,15.8,14.0,93,29.93,1.5,NNE,9.2,-,0.02,Snow,Light Snow,30,2013-02-09 03:43:00
10:51 PM,16.0,14.0,92,29.99,1.5,NNE,6.9,-,0.02,Snow,Light Snow,20,2013-02-09 03:51:00
11:13 PM,15.8,12.2,86,29.90,1.5,NNE,10.4,-,0.00,Snow,Light Snow,20,2013-02-09 04:13:00
11:39 PM,15.8,12.2,86,29.90,1.2,North,11.5,-,0.00,Snow,Light Snow,10,2013-02-09 04:39:00
11:51 PM,15.1,12.9,91,29.97,1.2,North,8.1,-,0.00,Snow,Light Snow,10,2013-02-09 04:51:00